Terminal Aerodrome Forecast
Issued by NWS Denver/Boulder, CO

Home | Current Version | Previous Version | Text Only | Print | Product List | Glossary On
Versions: 1 2 3 4 5 6 7 8 9 10 11 12 13 14 15 16 17 18 19 20 21 22 23 24 25 26 27 28 29 30 31 32 33 34 35 36 37 38 39 40 41 42 43 44 45 46 47 48 49 50
365
FTUS45 KBOU 240854 AAB
TAFDEN
TAF AMD
KDEN 240854Z 2409/2512 29007KT 3SM BR BKN004 OVC100
     FM241100 27006KT 4SM BR VCFG SCT003 BKN010 BKN100
     FM241300 24006KT P6SM FEW025 BKN100
     FM241600 29018G26KT P6SM FEW120
     FM241800 30023G31KT P6SM FEW250
     FM242300 01011KT P6SM FEW200
     FM250500 20010KT P6SM BKN200=

USA.gov is the U.S. government's official web portal to all federal, state and local government web resources and services.